Time;durP1;ratioP1;P1;durP2;ratioP2;P2;SDS_P1;SDS_P2;PMS_P1;PMS_P2;Temp;Humidity;BMP_temperature;BMP_pressure;BME280_temperature;BME280_humidity;BME280_pressure;Samples;Min_cycle;Max_cycle;Signal;HPM_P1;HPM_P2
2021/05/29 00:00:48;;;;;;;7.50;5.13;;;;;;;11.53;71.67;96733.63;5034305;28;20045;-72
2021/05/29 00:03:15;;;;;;;7.07;5.00;;;;;;;11.55;71.19;96742.31;5033692;28;20408;-72
2021/05/29 00:05:41;;;;;;;7.07;4.88;;;;;;;11.54;71.25;96746.19;5034239;28;20052;-72
2021/05/29 00:08:07;;;;;;;7.43;4.68;;;;;;;11.53;71.14;96741.03;5033544;28;20056;-72
2021/05/29 00:10:35;;;;;;;8.65;5.15;;;;;;;11.52;71.62;96734.75;5034045;28;20045;-72
2021/05/29 00:13:01;;;;;;;8.75;4.88;;;;;;;11.49;72.08;96721.78;5033807;28;20041;-72
2021/05/29 00:15:27;;;;;;;8.07;4.80;;;;;;;11.49;72.48;96717.13;5033995;28;20480;-72
2021/05/29 00:17:53;;;;;;;7.00;4.60;;;;;;;11.52;72.58;96712.94;5034022;28;20054;-73
2021/05/29 00:20:19;;;;;;;8.32;4.70;;;;;;;11.52;72.98;96715.66;5033298;28;20045;-72
2021/05/29 00:22:45;;;;;;;7.50;4.47;;;;;;;11.55;72.47;96722.44;5032792;28;20507;-72
2021/05/29 00:25:11;;;;;;;6.50;4.50;;;;;;;11.57;71.81;96723.72;5033066;28;20053;-72
2021/05/29 00:27:38;;;;;;;7.30;4.68;;;;;;;11.61;71.64;96729.34;5037300;28;20045;-72
2021/05/29 00:30:05;;;;;;;6.38;4.60;;;;;;;11.62;72.07;96729.03;5035806;28;20045;-72
2021/05/29 00:32:32;;;;;;;10.95;5.80;;;;;;;11.59;72.08;96720.66;5033557;28;20045;-72
2021/05/29 00:34:58;;;;;;;6.90;4.70;;;;;;;11.60;72.71;96705.94;5033503;28;20400;-72
2021/05/29 00:37:24;;;;;;;6.32;4.80;;;;;;;11.61;72.53;96708.34;5033253;28;20049;-73
2021/05/29 00:39:50;;;;;;;8.35;4.80;;;;;;;11.60;72.32;96712.19;5033495;28;20140;-73
2021/05/29 00:42:16;;;;;;;6.50;4.57;;;;;;;11.58;72.43;96697.25;5032951;28;20049;-73
2021/05/29 00:44:48;;;;;;;6.63;4.65;;;;;;;11.47;72.22;96699.44;5033589;28;20125;-72
2021/05/29 00:47:14;;;;;;;5.88;4.60;;;;;;;11.43;72.21;96709.38;5032890;28;20049;-72
2021/05/29 00:49:40;;;;;;;6.70;4.97;;;;;;;11.43;72.15;96703.91;5033322;28;20511;-72
2021/05/29 00:52:06;;;;;;;6.28;4.38;;;;;;;11.43;72.15;96702.03;5032838;28;20050;-72
2021/05/29 00:54:32;;;;;;;6.00;4.80;;;;;;;11.44;72.58;96705.56;5033116;28;20041;-73
2021/05/29 00:56:58;;;;;;;6.00;4.45;;;;;;;11.44;72.74;96702.81;5033161;28;20405;-72
2021/05/29 00:59:24;;;;;;;6.13;4.50;;;;;;;11.47;72.57;96702.19;5035979;28;20049;-72
2021/05/29 01:01:51;;;;;;;7.57;5.05;;;;;;;11.47;72.48;96691.28;5033176;28;20184;-72
2021/05/29 01:04:17;;;;;;;7.97;5.35;;;;;;;11.42;72.57;96694.13;5032630;28;20042;-73
2021/05/29 01:06:43;;;;;;;10.18;5.28;;;;;;;11.42;72.75;96691.41;5033334;28;20087;-72
2021/05/29 01:09:09;;;;;;;7.50;5.20;;;;;;;11.43;72.92;96690.28;5032276;28;20091;-68
2021/05/29 01:11:34;;;;;;;7.05;5.50;;;;;;;11.40;73.20;96702.63;5032512;28;20045;-68
2021/05/29 01:14:02;;;;;;;8.25;5.38;;;;;;;11.40;73.76;96696.38;5032621;28;20046;-69
2021/05/29 01:16:43;;;;;;;9.00;5.63;;;;;;;11.38;73.72;96691.25;5032330;28;20045;-69
2021/05/29 01:19:12;;;;;;;7.15;5.28;;;;;;;11.34;73.69;96687.53;5031968;28;20397;-68
2021/05/29 01:21:39;;;;;;;8.02;5.60;;;;;;;11.32;73.72;96686.22;5032392;28;20126;-68
2021/05/29 01:24:07;;;;;;;9.38;5.50;;;;;;;11.30;73.75;96685.75;5031865;28;20140;-69
2021/05/29 01:26:33;;;;;;;9.65;6.85;;;;;;;11.26;73.35;96691.03;5032455;28;20042;-68
2021/05/29 01:28:59;;;;;;;6.88;5.32;;;;;;;11.24;73.77;96694.06;5027235;28;20460;-68
2021/05/29 01:31:27;;;;;;;8.05;5.78;;;;;;;11.25;73.47;96700.31;5011997;28;20073;-68
2021/05/29 01:33:56;;;;;;;8.02;5.63;;;;;;;11.28;73.71;96704.34;5011415;28;20049;-68
2021/05/29 01:36:22;;;;;;;7.95;5.40;;;;;;;11.27;73.92;96691.81;5011400;28;20084;-68
2021/05/29 01:38:49;;;;;;;6.85;5.22;;;;;;;11.27;74.20;96694.56;5011394;28;20124;-68
2021/05/29 01:41:18;;;;;;;7.57;5.40;;;;;;;11.28;74.06;96688.00;5011239;28;20050;-68
2021/05/29 01:43:46;;;;;;;8.27;5.28;;;;;;;11.27;74.38;96692.63;5010879;28;20042;-68
2021/05/29 01:46:13;;;;;;;7.35;5.43;;;;;;;11.28;73.46;96694.25;5011818;28;20096;-68
2021/05/29 01:48:42;;;;;;;7.38;5.40;;;;;;;11.23;73.63;96695.19;5011073;28;20425;-68
2021/05/29 01:51:09;;;;;;;9.43;5.88;;;;;;;11.20;74.12;96697.72;5011357;28;20105;-68
2021/05/29 01:53:36;;;;;;;8.15;5.13;;;;;;;11.17;73.91;96687.44;5011134;28;20054;-68
2021/05/29 01:56:04;;;;;;;7.57;5.30;;;;;;;11.17;73.93;96692.91;5010939;28;20512;-69
2021/05/29 01:58:30;;;;;;;7.75;5.40;;;;;;;11.17;74.25;96698.34;5025263;28;20737;-68
2021/05/29 02:00:56;;;;;;;8.73;5.35;;;;;;;11.18;73.89;96706.22;5030697;28;20041;-68
2021/05/29 02:03:23;;;;;;;8.45;5.60;;;;;;;11.15;74.09;96695.94;5030606;28;20045;-68
2021/05/29 02:05:49;;;;;;;8.40;6.10;;;;;;;11.18;73.65;96708.97;5031612;28;20428;-68
2021/05/29 02:08:16;;;;;;;9.30;5.85;;;;;;;11.17;73.66;96701.91;5031135;28;20045;-68
2021/05/29 02:10:44;;;;;;;8.38;5.57;;;;;;;11.16;73.59;96697.53;5031414;28;20389;-68
2021/05/29 02:13:12;;;;;;;12.43;6.43;;;;;;;11.16;73.67;96697.53;5030932;28;20042;-68
2021/05/29 02:15:40;;;;;;;9.18;6.20;;;;;;;11.15;73.90;96682.31;5031535;28;20041;-68
2021/05/29 02:18:08;;;;;;;8.90;5.93;;;;;;;11.16;74.03;96685.84;5031152;28;20497;-68
2021/05/29 02:20:40;;;;;;;9.20;6.93;;;;;;;11.13;73.84;96681.84;5031482;28;20408;-68
2021/05/29 02:23:07;;;;;;;9.00;6.35;;;;;;;11.11;74.30;96689.50;5030601;28;20053;-69
2021/05/29 02:25:33;;;;;;;8.80;6.20;;;;;;;11.10;74.08;96682.44;5028397;28;20498;-69
2021/05/29 02:27:59;;;;;;;9.95;5.90;;;;;;;11.06;74.30;96686.09;5031268;28;20045;-68
2021/05/29 02:30:26;;;;;;;9.85;6.22;;;;;;;11.00;74.26;96687.38;5030916;28;20056;-66
2021/05/29 02:32:54;;;;;;;9.75;6.65;;;;;;;10.95;74.76;96680.13;5025965;28;20056;-67
2021/05/29 02:35:20;;;;;;;8.68;6.35;;;;;;;10.94;75.16;96670.34;5030751;28;20528;-67
2021/05/29 02:37:46;;;;;;;9.48;6.90;;;;;;;10.92;74.96;96673.38;5031108;28;20053;-68
2021/05/29 02:40:14;;;;;;;11.30;6.53;;;;;;;10.92;75.05;96678.03;5030612;28;20053;-67
2021/05/29 02:42:40;;;;;;;8.55;6.68;;;;;;;10.89;74.76;96671.28;5030880;28;20052;-67
2021/05/29 02:45:07;;;;;;;9.20;6.40;;;;;;;10.89;74.95;96676.72;5030633;28;20535;-69
2021/05/29 02:47:33;;;;;;;10.07;6.65;;;;;;;10.88;75.11;96677.84;5030562;28;20047;-69
2021/05/29 02:50:00;;;;;;;11.27;8.35;;;;;;;10.86;74.85;96680.09;5030863;28;20045;-67
2021/05/29 02:52:27;;;;;;;11.48;9.40;;;;;;;10.84;75.43;96673.34;5030862;28;20034;-67
2021/05/29 02:54:53;;;;;;;11.07;8.75;;;;;;;10.81;75.47;96666.59;5030667;28;20050;-67
2021/05/29 02:57:19;;;;;;;11.05;8.65;;;;;;;10.81;75.46;96668.53;5030368;28;20072;-67
2021/05/29 02:59:45;;;;;;;13.02;9.15;;;;;;;10.81;75.30;96671.25;5030785;28;20037;-67
2021/05/29 03:02:12;;;;;;;10.68;8.50;;;;;;;10.76;75.13;96676.81;5034729;28;20705;-67
2021/05/29 03:04:38;;;;;;;12.23;8.75;;;;;;;10.71;75.38;96681.28;5031134;28;20044;-67
2021/05/29 03:07:06;;;;;;;13.63;9.57;;;;;;;10.65;75.56;96682.53;5030117;28;20046;-67
2021/05/29 03:09:33;;;;;;;11.65;8.35;;;;;;;10.63;75.57;96682.00;5030672;28;20108;-67
2021/05/29 03:11:59;;;;;;;9.95;8.13;;;;;;;10.62;75.49;96682.34;5030113;28;20046;-67
2021/05/29 03:14:26;;;;;;;12.30;8.10;;;;;;;10.61;75.34;96686.97;5030120;28;20052;-67
2021/05/29 03:16:52;;;;;;;10.35;7.25;;;;;;;10.60;75.22;96679.91;5030736;28;20034;-67
2021/05/29 03:19:18;;;;;;;12.00;7.43;;;;;;;10.61;75.97;96686.16;5030117;28;20516;-67
2021/05/29 03:21:44;;;;;;;11.07;7.40;;;;;;;10.63;75.65;96692.91;5030762;28;20045;-66
2021/05/29 03:24:12;;;;;;;10.15;7.45;;;;;;;10.64;75.48;96699.94;5029720;28;20069;-69
2021/05/29 03:26:38;;;;;;;9.48;6.45;;;;;;;10.66;75.18;96705.91;5030531;28;20048;-67
2021/05/29 03:29:04;;;;;;;11.18;7.05;;;;;;;10.67;75.47;96701.28;5030223;28;20053;-67
2021/05/29 03:31:30;;;;;;;10.65;6.88;;;;;;;10.69;75.40;96699.84;5050816;28;20500;-65
2021/05/29 03:33:56;;;;;;;8.38;6.47;;;;;;;10.73;75.01;96705.47;5050367;28;20044;-65
2021/05/29 03:36:22;;;;;;;11.40;6.80;;;;;;;10.73;75.00;96701.94;5040392;28;20076;-66
2021/05/29 03:38:48;;;;;;;11.00;6.93;;;;;;;10.72;75.62;96714.75;5040327;28;20448;-65
2021/05/29 03:41:15;;;;;;;9.60;6.70;;;;;;;10.71;75.48;96700.34;5040569;28;20052;-65
2021/05/29 03:43:42;;;;;;;9.35;6.80;;;;;;;10.74;75.25;96706.28;5040084;28;20064;-65
2021/05/29 03:46:08;;;;;;;8.13;6.70;;;;;;;10.74;75.20;96719.91;5040297;28;20041;-66
2021/05/29 03:48:34;;;;;;;8.82;6.38;;;;;;;10.73;75.63;96710.13;5040338;28;20049;-65
2021/05/29 03:51:01;;;;;;;8.98;6.70;;;;;;;10.73;75.70;96721.00;5041611;27;20143;-66
2021/05/29 03:53:27;;;;;;;7.43;5.78;;;;;;;10.70;75.61;96728.69;5039807;28;20072;-65
2021/05/29 03:55:54;;;;;;;9.40;5.97;;;;;;;10.69;75.80;96727.06;5039536;28;20053;-65
2021/05/29 03:58:22;;;;;;;7.82;6.32;;;;;;;10.69;76.25;96721.63;5040875;28;20074;-65
2021/05/29 04:00:48;;;;;;;8.65;6.18;;;;;;;10.74;75.83;96728.06;5042974;28;20516;-65
2021/05/29 04:03:14;;;;;;;8.40;6.10;;;;;;;10.76;75.88;96728.56;5043197;28;20543;-65
2021/05/29 04:05:40;;;;;;;8.90;5.57;;;;;;;10.80;75.91;96726.81;5043007;28;20057;-66
2021/05/29 04:08:06;;;;;;;8.45;5.97;;;;;;;10.84;74.99;96733.25;5042902;28;20045;-65
2021/05/29 04:10:33;;;;;;;8.25;5.85;;;;;;;10.86;75.11;96741.94;5043346;28;20041;-65
2021/05/29 04:13:00;;;;;;;10.63;5.97;;;;;;;10.84;74.71;96739.50;5042718;28;20680;-65
2021/05/29 04:15:28;;;;;;;7.38;5.00;;;;;;;10.88;75.05;96742.44;5043449;28;20048;-65
2021/05/29 04:17:54;;;;;;;6.75;5.47;;;;;;;10.89;75.06;96735.88;5043034;28;20052;-65
2021/05/29 04:20:22;;;;;;;11.20;6.15;;;;;;;10.90;75.46;96738.28;5043013;28;20041;-66
2021/05/29 04:22:49;;;;;;;6.70;5.35;;;;;;;10.93;75.24;96737.66;5043319;28;20049;-65
2021/05/29 04:25:18;;;;;;;7.45;5.35;;;;;;;10.99;74.94;96735.63;5043263;28;20049;-65
2021/05/29 04:27:44;;;;;;;7.38;5.50;;;;;;;11.01;75.00;96735.28;5042591;28;20045;-66
2021/05/29 04:30:14;;;;;;;7.28;5.07;;;;;;;11.07;75.02;96734.88;5042711;28;20107;-65
2021/05/29 04:32:41;;;;;;;6.07;4.78;;;;;;;11.11;75.19;96744.00;5043003;28;20448;-65
2021/05/29 04:35:08;;;;;;;7.05;5.10;;;;;;;11.17;74.53;96747.41;5042820;28;20049;-65
2021/05/29 04:37:34;;;;;;;9.88;5.53;;;;;;;11.19;74.25;96745.19;5043091;28;20052;-65
2021/05/29 04:40:00;;;;;;;8.43;5.13;;;;;;;11.22;74.27;96742.66;5042930;28;20124;-65
2021/05/29 04:42:26;;;;;;;9.80;5.50;;;;;;;11.29;73.13;96744.94;5042858;28;20140;-65
2021/05/29 04:44:52;;;;;;;7.20;4.95;;;;;;;11.29;72.35;96749.59;5042748;28;20060;-65
2021/05/29 04:47:25;;;;;;;6.65;4.85;;;;;;;11.33;71.98;96756.00;5042730;28;20045;-67
2021/05/29 04:49:52;;;;;;;7.70;4.82;;;;;;;11.35;71.55;96748.31;5043496;28;20053;-65
2021/05/29 04:52:18;;;;;;;7.43;5.25;;;;;;;11.33;72.04;96761.44;5042264;28;20060;-65
2021/05/29 04:54:44;;;;;;;6.72;5.18;;;;;;;11.35;72.49;96748.31;5041860;28;20040;-65
2021/05/29 04:57:10;;;;;;;7.80;4.43;;;;;;;11.37;71.87;96756.97;5043027;28;20181;-66
2021/05/29 04:59:36;;;;;;;7.55;4.97;;;;;;;11.40;72.19;96753.66;5042484;28;20045;-65
2021/05/29 05:02:02;;;;;;;6.28;5.05;;;;;;;11.41;71.42;96757.97;5042899;28;20076;-66
2021/05/29 05:04:28;;;;;;;8.80;5.70;;;;;;;11.41;71.12;96744.34;5042275;28;20041;-65
2021/05/29 05:06:55;;;;;;;7.28;5.00;;;;;;;11.42;71.66;96748.66;5042046;28;20553;-65
2021/05/29 05:09:22;;;;;;;8.68;5.38;;;;;;;11.42;71.04;96745.94;5041706;28;20049;-65
2021/05/29 05:11:49;;;;;;;8.02;5.88;;;;;;;11.45;71.65;96748.06;5041841;28;20689;-66
2021/05/29 05:14:15;;;;;;;8.32;5.25;;;;;;;11.47;71.04;96745.81;5042550;28;20055;-66
2021/05/29 05:16:41;;;;;;;7.28;5.63;;;;;;;11.45;70.92;96742.59;5042350;28;20049;-65
2021/05/29 05:19:07;;;;;;;7.72;5.20;;;;;;;11.47;71.59;96745.81;5042495;28;20076;-65
2021/05/29 05:21:33;;;;;;;8.85;5.28;;;;;;;11.54;70.99;96740.72;5042202;28;20111;-67
2021/05/29 05:24:00;;;;;;;6.95;5.15;;;;;;;11.60;70.89;96738.66;5041536;28;20462;-68
2021/05/29 05:26:26;;;;;;;9.18;4.60;;;;;;;11.65;70.43;96742.06;5042321;28;20052;-67
2021/05/29 05:28:53;;;;;;;8.65;4.63;;;;;;;11.70;70.20;96744.63;5041733;28;20657;-65
2021/05/29 05:31:19;;;;;;;8.48;4.32;;;;;;;11.72;69.93;96734.19;5041951;28;20068;-65
2021/05/29 05:33:47;;;;;;;6.57;4.10;;;;;;;11.79;69.91;96738.38;5042127;28;20107;-65
2021/05/29 05:36:14;;;;;;;5.32;4.07;;;;;;;11.83;69.00;96729.28;5041479;28;20717;-65
2021/05/29 05:38:41;;;;;;;6.60;4.30;;;;;;;11.90;68.53;96737.00;5041926;28;20052;-65
2021/05/29 05:41:08;;;;;;;4.70;3.70;;;;;;;12.02;68.70;96746.22;5041694;28;20070;-65
2021/05/29 05:43:35;;;;;;;5.25;3.85;;;;;;;12.14;66.68;96737.38;5042053;28;20049;-66
2021/05/29 05:46:02;;;;;;;7.38;4.22;;;;;;;12.21;66.37;96748.63;5041700;28;20111;-65
2021/05/29 05:48:28;;;;;;;5.63;4.00;;;;;;;12.27;66.88;96743.84;5042103;28;20106;-65
2021/05/29 05:50:56;;;;;;;5.43;3.25;;;;;;;12.34;66.84;96751.56;5024696;28;20053;-65
2021/05/29 05:53:23;;;;;;;4.90;3.63;;;;;;;12.41;66.89;96751.88;5041709;28;20045;-65
2021/05/29 05:55:53;;;;;;;5.10;3.45;;;;;;;12.49;66.98;96753.84;5042003;28;20099;-66
2021/05/29 05:58:21;;;;;;;5.28;3.78;;;;;;;12.53;65.52;96746.59;5041250;28;20422;-66
2021/05/29 06:00:47;;;;;;;6.00;3.55;;;;;;;12.55;65.93;96747.09;5041386;28;20629;-65
2021/05/29 06:03:13;;;;;;;5.45;3.30;;;;;;;12.62;66.17;96747.41;5041221;28;20343;-66
2021/05/29 06:05:39;;;;;;;5.20;3.20;;;;;;;12.66;65.90;96751.09;5041398;28;20077;-65
2021/05/29 06:08:05;;;;;;;3.90;3.20;;;;;;;12.73;64.08;96759.59;5041697;28;20691;-66
2021/05/29 06:10:31;;;;;;;8.27;3.40;;;;;;;12.78;64.18;96756.72;5041396;28;20048;-65
2021/05/29 06:12:57;;;;;;;4.93;3.30;;;;;;;12.88;64.63;96765.72;5041498;28;20052;-66
2021/05/29 06:18:20;;;;;;;6.30;3.58;;;;;;;12.96;63.98;96767.66;5041516;28;20055;-65
2021/05/29 06:20:49;;;;;;;3.92;3.10;;;;;;;13.01;62.83;96765.56;5040631;28;20045;-65
2021/05/29 06:23:15;;;;;;;5.22;3.47;;;;;;;13.01;63.07;96770.22;5040833;28;20095;-65
2021/05/29 06:25:41;;;;;;;7.80;3.80;;;;;;;12.97;63.97;96761.84;5041146;28;20044;-66
2021/05/29 06:28:08;;;;;;;6.05;4.22;;;;;;;13.00;64.30;96758.50;5041068;28;20116;-65
2021/05/29 06:30:35;;;;;;;6.18;3.50;;;;;;;13.06;64.06;96761.84;5041102;28;20041;-66
2021/05/29 06:33:02;;;;;;;7.95;3.67;;;;;;;13.16;61.58;96761.53;5041300;28;20048;-65
2021/05/29 06:35:28;;;;;;;6.97;3.30;;;;;;;13.21;59.47;96766.84;5040710;28;20539;-65
2021/05/29 06:37:54;;;;;;;5.18;3.22;;;;;;;13.22;58.43;96765.72;5040573;28;20044;-66
2021/05/29 06:40:20;;;;;;;7.03;3.22;;;;;;;13.26;59.28;96761.22;5040413;28;20130;-65
2021/05/29 06:42:46;;;;;;;4.47;2.97;;;;;;;13.34;59.49;96766.97;5040863;28;20052;-67
2021/05/29 06:45:13;;;;;;;3.20;2.75;;;;;;;13.41;58.76;96770.81;5040726;28;20080;-65
2021/05/29 06:47:39;;;;;;;4.78;3.60;;;;;;;13.49;58.86;96775.47;5040921;28;20052;-65
2021/05/29 06:50:08;;;;;;;5.68;2.42;;;;;;;13.55;55.74;96773.34;5041924;28;20055;-65
2021/05/29 06:52:37;;;;;;;3.47;2.50;;;;;;;13.56;55.58;96775.75;5040532;28;20052;-67
2021/05/29 06:58:34;;;;;;;4.03;2.30;;;;;;;13.66;54.96;96780.06;5040748;28;20052;-65
2021/05/29 07:00:34;;;;;;;3.85;2.50;;;;;;;13.77;55.62;96775.84;5020662;28;20088;-66
2021/05/29 07:03:01;;;;;;;4.00;2.53;;;;;;;13.84;55.24;96776.16;5020146;28;20511;-65
2021/05/29 07:05:27;;;;;;;3.00;2.20;;;;;;;13.97;55.12;96774.31;5020217;28;20045;-66
2021/05/29 07:07:53;;;;;;;3.50;2.42;;;;;;;14.13;54.07;96776.50;5020879;28;20056;-66
2021/05/29 07:10:19;;;;;;;6.30;2.83;;;;;;;14.24;54.07;96775.78;5020735;28;20046;-66
2021/05/29 07:12:45;;;;;;;5.40;3.05;;;;;;;14.38;55.65;96772.00;5020991;28;20049;-65
2021/05/29 07:15:12;;;;;;;4.63;2.80;;;;;;;14.53;55.91;96774.19;5020303;28;20049;-66
2021/05/29 07:17:41;;;;;;;4.43;2.70;;;;;;;14.69;56.64;96783.41;5019860;28;20057;-66
2021/05/29 07:20:09;;;;;;;4.05;2.72;;;;;;;14.79;54.72;96783.00;5020948;28;20041;-66
2021/05/29 07:22:35;;;;;;;4.35;2.80;;;;;;;14.90;53.71;96788.09;5020069;28;20072;-66
2021/05/29 07:25:02;;;;;;;3.55;2.80;;;;;;;14.98;54.51;96778.97;5020655;28;20049;-66
2021/05/29 07:27:28;;;;;;;3.70;2.58;;;;;;;15.10;53.13;96779.06;5020361;28;20166;-67
2021/05/29 07:29:54;;;;;;;3.97;2.80;;;;;;;15.20;55.60;96777.84;5020271;28;20125;-66
2021/05/29 07:32:20;;;;;;;3.50;2.47;;;;;;;15.28;52.32;96775.00;5021575;28;20088;-66
2021/05/29 07:34:46;;;;;;;5.70;2.70;;;;;;;15.36;53.67;96771.38;5024102;28;20107;-66
2021/05/29 07:37:13;;;;;;;4.53;2.70;;;;;;;15.44;54.08;96777.09;5024575;28;20441;-66
2021/05/29 07:39:39;;;;;;;4.43;2.78;;;;;;;15.59;54.99;96779.19;5024343;28;20045;-66
2021/05/29 07:42:05;;;;;;;4.60;2.40;;;;;;;15.75;54.80;96780.16;5023825;28;20097;-66
2021/05/29 07:44:31;;;;;;;4.10;2.70;;;;;;;15.88;55.97;96779.06;5024044;28;20493;-66
2021/05/29 07:46:57;;;;;;;3.13;2.33;;;;;;;15.95;51.54;96777.69;5024003;28;20048;-66
2021/05/29 07:49:23;;;;;;;3.45;2.13;;;;;;;15.99;51.15;96773.13;5023159;28;20190;-66
2021/05/29 07:51:49;;;;;;;3.33;2.35;;;;;;;16.13;54.08;96773.56;5022930;28;20132;-66
2021/05/29 07:54:16;;;;;;;3.83;2.45;;;;;;;16.27;51.43;96779.50;5022607;28;20692;-66
2021/05/29 07:56:42;;;;;;;3.58;2.10;;;;;;;16.35;49.86;96770.34;5022874;28;20049;-66
2021/05/29 07:59:11;;;;;;;2.75;2.00;;;;;;;16.44;48.28;96771.03;5023152;28;20651;-66
2021/05/29 08:01:37;;;;;;;5.30;2.17;;;;;;;16.52;48.13;96768.50;5022545;28;20048;-66
2021/05/29 08:04:03;;;;;;;2.92;2.08;;;;;;;16.63;49.34;96769.63;5022554;28;20037;-66
2021/05/29 08:06:30;;;;;;;4.78;2.30;;;;;;;17.38;45.88;96778.13;5023165;28;20048;-66
2021/05/29 08:08:56;;;;;;;3.53;1.90;;;;;;;18.73;41.62;96775.19;5022801;28;20045;-66
2021/05/29 08:11:24;;;;;;;3.10;1.90;;;;;;;20.21;39.80;96782.38;5023710;28;20049;-66
2021/05/29 08:13:50;;;;;;;3.00;1.52;;;;;;;21.48;36.40;96774.28;5023329;28;20099;-66
2021/05/29 08:16:18;;;;;;;2.75;1.50;;;;;;;22.55;35.17;96769.75;5023270;28;20077;-66
2021/05/29 08:18:44;;;;;;;2.58;1.52;;;;;;;23.28;29.27;96774.50;5023164;28;20045;-68
2021/05/29 08:21:11;;;;;;;2.90;1.70;;;;;;;23.66;33.50;96771.13;5023181;28;20140;-67
2021/05/29 08:23:37;;;;;;;2.83;2.08;;;;;;;24.10;31.00;96778.31;5023451;28;20050;-66
2021/05/29 08:26:03;;;;;;;3.10;1.65;;;;;;;24.79;26.61;96779.13;5022859;28;20049;-68
2021/05/29 08:28:30;;;;;;;4.05;1.65;;;;;;;25.00;23.40;96773.47;5023114;28;20794;-67
2021/05/29 08:30:57;;;;;;;2.50;1.65;;;;;;;25.21;24.66;96778.22;5022891;28;20118;-66
2021/05/29 08:33:23;;;;;;;3.25;1.80;;;;;;;25.56;26.67;96768.91;5023756;28;20037;-67
2021/05/29 08:35:49;;;;;;;2.85;1.73;;;;;;;25.35;27.85;96774.59;5022827;28;20517;-67
2021/05/29 08:38:17;;;;;;;2.10;1.58;;;;;;;25.54;24.72;96782.50;5023134;28;20045;-67
2021/05/29 08:40:43;;;;;;;3.72;1.83;;;;;;;25.75;25.24;96774.03;5023117;28;20042;-66
2021/05/29 08:43:09;;;;;;;3.22;1.80;;;;;;;24.90;25.74;96774.31;5023046;28;20084;-67
2021/05/29 08:45:37;;;;;;;5.53;2.00;;;;;;;24.43;26.41;96768.84;5022052;28;20049;-67
2021/05/29 08:48:03;;;;;;;4.25;2.17;;;;;;;24.96;27.69;96770.72;5022839;28;20707;-67
2021/05/29 08:50:29;;;;;;;4.38;2.30;;;;;;;24.71;28.04;96767.19;5024182;28;21208;-67
2021/05/29 08:52:55;;;;;;;3.50;2.00;;;;;;;24.14;30.53;96773.56;5022404;28;20051;-66
2021/05/29 08:55:22;;;;;;;2.83;1.70;;;;;;;24.76;28.88;96768.78;5023392;28;20056;-67
2021/05/29 08:57:49;;;;;;;3.35;2.40;;;;;;;25.07;26.13;96762.38;5023251;28;20739;-67
2021/05/29 09:00:17;;;;;;;3.05;2.10;;;;;;;25.44;27.82;96763.81;5022879;28;20404;-69
2021/05/29 09:03:03;;;;;;;5.32;2.55;;;;;;;25.81;27.18;96765.25;5022782;28;20433;-67
2021/05/29 09:05:40;;;;;;;3.20;1.92;;;;;;;26.02;27.61;96765.09;5023061;28;20628;-67
2021/05/29 09:08:08;;;;;;;3.53;2.08;;;;;;;25.84;27.28;96767.19;5023106;28;20037;-67
2021/05/29 09:10:39;;;;;;;3.83;1.98;;;;;;;25.64;26.31;96764.13;5022725;28;20499;-67
2021/05/29 09:13:11;;;;;;;4.95;2.00;;;;;;;25.56;26.93;96757.75;5022696;28;20128;-67
2021/05/29 09:15:42;;;;;;;6.43;2.53;;;;;;;25.25;27.50;96760.28;5022685;28;20045;-66
2021/05/29 09:18:33;;;;;;;5.80;2.17;;;;;;;24.85;33.53;96760.78;5022702;28;20048;-67
2021/05/29 09:21:21;;;;;;;3.42;2.10;;;;;;;23.99;29.72;96766.41;5022768;28;20049;-66
2021/05/29 09:23:48;;;;;;;4.15;2.30;;;;;;;23.39;29.60;96769.81;5022845;28;20038;-67
2021/05/29 09:26:15;;;;;;;3.25;2.53;;;;;;;23.06;34.39;96771.66;5022186;28;20045;-66
2021/05/29 09:28:44;;;;;;;3.72;2.03;;;;;;;22.78;32.42;96765.91;5022658;28;20659;-65
2021/05/29 09:31:14;;;;;;;4.03;2.13;;;;;;;22.25;33.42;96778.25;5022351;28;20049;-66
2021/05/29 09:33:41;;;;;;;2.72;1.80;;;;;;;21.50;33.24;96785.00;5022383;28;20114;-66
2021/05/29 09:36:10;;;;;;;2.90;2.00;;;;;;;20.78;33.30;96769.44;5022022;28;20132;-66
2021/05/29 09:38:39;;;;;;;3.67;2.20;;;;;;;20.14;35.49;96783.03;5021776;28;20136;-66
2021/05/29 09:41:16;;;;;;;3.10;1.90;;;;;;;19.88;38.43;96778.25;5022130;28;20116;-67
2021/05/29 09:43:57;;;;;;;3.30;1.90;;;;;;;19.96;38.95;96780.00;5021729;28;20052;-68
2021/05/29 09:46:24;;;;;;;4.63;1.98;;;;;;;20.17;39.60;96778.75;5022179;28;20635;-68
2021/05/29 09:48:56;;;;;;;2.55;1.52;;;;;;;20.35;32.59;96774.28;5021690;28;20673;-67
2021/05/29 09:51:22;;;;;;;3.22;1.70;;;;;;;20.45;38.46;96783.94;5023289;28;20084;-68
2021/05/29 09:53:51;;;;;;;2.67;1.63;;;;;;;20.55;37.70;96773.06;5022118;28;20045;-72
2021/05/29 09:56:30;;;;;;;4.10;2.10;;;;;;;20.83;38.26;96775.44;5021931;28;20095;-72
2021/05/29 09:59:00;;;;;;;3.17;1.88;;;;;;;20.92;33.70;96777.13;5026478;28;20100;-72
2021/05/29 10:01:35;;;;;;;3.45;1.90;;;;;;;20.91;33.19;96772.78;5031605;28;20065;-71
2021/05/29 10:04:03;;;;;;;2.85;2.00;;;;;;;20.93;36.12;96770.41;5031352;28;20038;-70
2021/05/29 10:06:29;;;;;;;4.43;1.80;;;;;;;20.93;37.77;96773.97;5031382;28;20041;-70
2021/05/29 10:08:55;;;;;;;6.22;1.95;;;;;;;21.06;39.25;96775.34;5031633;28;20526;-71
2021/05/29 10:11:21;;;;;;;5.50;1.60;;;;;;;21.22;35.97;96771.59;5031003;28;20097;-71
2021/05/29 10:13:47;;;;;;;3.17;1.67;;;;;;;21.39;40.49;96776.56;5031856;28;20053;-69
2021/05/29 10:16:14;;;;;;;2.42;1.60;;;;;;;21.49;34.53;96770.34;5031100;28;20045;-70
2021/05/29 10:18:41;;;;;;;2.00;1.50;;;;;;;21.59;34.96;96764.13;5031275;28;20042;-69
2021/05/29 10:21:08;;;;;;;3.17;1.50;;;;;;;21.40;30.27;96766.28;5030750;28;20046;-69
2021/05/29 10:23:36;;;;;;;2.45;1.58;;;;;;;21.11;38.69;96768.69;5031336;28;20054;-71
2021/05/29 10:26:03;;;;;;;2.53;1.92;;;;;;;21.18;36.63;96762.44;5030893;28;20049;-69
2021/05/29 10:28:30;;;;;;;2.55;1.85;;;;;;;21.25;34.69;96771.63;5030699;28;20531;-70
2021/05/29 10:30:56;;;;;;;3.65;1.50;;;;;;;21.16;34.60;96764.78;5029258;28;20488;-69
2021/05/29 10:33:23;;;;;;;3.67;1.85;;;;;;;20.78;36.95;96769.44;5030293;28;20049;-70
2021/05/29 10:35:50;;;;;;;1.60;1.50;;;;;;;20.63;39.29;96773.19;5030075;28;20065;-70
2021/05/29 10:38:21;;;;;;;3.00;1.63;;;;;;;20.65;36.81;96773.59;5030072;28;20042;-69
2021/05/29 10:40:49;;;;;;;2.00;1.40;;;;;;;20.65;42.43;96768.06;5030691;28;20624;-70
2021/05/29 10:43:18;;;;;;;1.77;1.40;;;;;;;20.62;35.96;96769.63;5029916;28;20045;-70
2021/05/29 10:46:07;;;;;;;2.85;1.50;;;;;;;20.73;35.49;96772.53;5026599;28;20056;-70
2021/05/29 10:48:50;;;;;;;2.22;1.40;;;;;;;20.94;36.11;96767.28;5036675;28;20044;-69
2021/05/29 10:51:18;;;;;;;3.85;1.48;;;;;;;21.15;36.42;96760.44;5030011;28;20137;-69
2021/05/29 10:53:47;;;;;;;2.40;1.63;;;;;;;21.22;34.88;96766.84;5030440;28;20048;-69
2021/05/29 10:56:33;;;;;;;1.85;1.60;;;;;;;20.97;36.60;96760.97;5029768;28;20497;-69
2021/05/29 10:59:06;;;;;;;4.50;1.70;;;;;;;20.59;32.79;96764.81;5030848;28;20037;-69
2021/05/29 11:01:51;;;;;;;;;;;;;;;20.35;35.10;96768.75;5029854;28;20068;-69
2021/05/29 11:04:21;;;;;;;5.45;1.80;;;;;;;19.97;35.93;96770.53;5029796;28;19964;-69
2021/05/29 11:06:49;;;;;;;4.50;1.60;;;;;;;19.72;37.30;96756.25;5029109;28;20068;-69
2021/05/29 11:09:18;;;;;;;2.65;1.50;;;;;;;19.82;39.25;96757.63;5030280;28;20492;-69
2021/05/29 11:11:55;;;;;;;2.03;1.30;;;;;;;19.96;33.70;96759.84;5030247;28;20041;-69
2021/05/29 11:14:23;;;;;;;2.55;1.10;;;;;;;19.93;35.55;96753.06;5029676;28;20092;-69
2021/05/29 11:17:25;;;;;;;3.75;1.40;;;;;;;19.84;36.23;96760.00;5028639;28;20456;-69
2021/05/29 11:20:07;;;;;;;1.27;1.10;;;;;;;19.79;36.96;96753.66;5023513;28;20046;-71
2021/05/29 11:22:41;;;;;;;2.10;1.20;;;;;;;19.87;33.24;96751.00;5024691;28;20696;-70
2021/05/29 11:25:12;;;;;;;2.60;1.42;;;;;;;20.03;38.36;96758.00;5025428;28;20416;-71
2021/05/29 11:27:39;;;;;;;2.15;1.48;;;;;;;20.22;36.60;96750.78;5026853;28;20128;-69
2021/05/29 11:30:09;;;;;;;4.57;1.17;;;;;;;20.41;34.87;96756.25;5026744;28;20505;-72
2021/05/29 11:32:43;;;;;;;4.45;1.30;;;;;;;20.59;33.67;96750.97;5007253;28;20050;-70
2021/05/29 11:35:38;;;;;;;3.20;1.30;;;;;;;20.61;32.60;96756.94;5007666;28;20564;-69
2021/05/29 11:38:12;;;;;;;4.00;1.20;;;;;;;20.51;34.82;96758.38;5006508;28;20050;-69
2021/05/29 11:40:55;;;;;;;1.85;1.42;;;;;;;20.42;38.19;96760.59;5007710;28;20053;-71
2021/05/29 11:43:32;;;;;;;3.90;1.30;;;;;;;20.30;36.81;96758.00;5006969;28;20049;-71